Flight Track Log - Related Links

Times and Time Zones

All times are in EDT time to prevent confusion due to time zone crossing. See the UAL32 flight status page for this flight to view local times or setup timezone preferences in your user account.

Time Position Orientation Groundspeed Altitude Reporting Facility
EDT Latitude Longitude Course Direction KTS MPH feet Rate Location/Type
Thu 12:42:03 PM 41.9833 -87.9667 190° South 179 206 2,800  Level Chicago TRACON
Thu 12:43:00 PM 41.6653 -88.1403 187° South  Level Estimated
Thu 12:43:09 PM 41.9167 -88.0333 217° Southwest 259 298 5,000  Level Chicago TRACON
Thu 12:44:00 PM 41.5598 -88.2177 189° South  Level Estimated
Thu 12:44:09 PM 41.8500 -88.0500 191° South 268 308 5,000  Level Chicago TRACON
Thu 12:45:00 PM 41.4542 -88.2948 197° South  Level Estimated
Thu 12:45:20 PM 41.7594 -88.0386 175° South 273 314 8,700  Level Chicago Center
Thu 12:46:00 PM 41.3485 -88.3716 189° South  Level Estimated
Thu 12:46:22 PM 41.6792 -88.0369 179° South 287 330 12,500  Level Chicago Center
Thu 12:47:00 PM 41.2428 -88.4482 190° South  Level Estimated
Thu 12:47:24 PM 41.5872 -88.0344 179° South 332 382 15,500  Level Chicago Center
Thu 12:48:26 PM 41.4908 -88.0314 179° South 345 397 18,700 3,048 Climbing Chicago Center
Thu 12:49:28 PM 41.3842 -88.0375 182° South 356 410 21,800 2,710 Climbing Chicago Center
Thu 12:50:30 PM 41.2758 -88.0739 194° South 383 441 24,300 2,352 Climbing Chicago Center
Thu 12:51:33 PM 41.1694 -88.1072 193° South 390 449 26,700 2,304 Climbing Chicago Center
Thu 12:52:35 PM 41.0342 -88.1456 192° South 410 472 29,100 2,177 Climbing Chicago Center
Thu 12:53:37 PM 40.9181 -88.1781 192° South 422 486 31,200 1,887 Climbing Chicago Center
Thu 12:54:39 PM 40.7978 -88.2119 192° South 439 505 33,000 1,597 Climbing Chicago Center
Thu 12:55:41 PM 40.6742 -88.2483 193° South 454 522 34,500 1,355 Climbing Chicago Center
Thu 12:56:43 PM 40.5467 -88.2831 192° South 469 540 35,800 1,597 Climbing Chicago Center
Thu 12:57:45 PM 40.3922 -88.3272 192° South 474 545 37,800 1,597 Climbing Chicago Center
Thu 12:58:47 PM 40.2686 -88.3856 200° South 481 554 39,100 1,065 Climbing Chicago Center
Thu 12:59:49 PM 40.1472 -88.4739 209° Southwest 475 547 40,000 435 Climbing Chicago Center
Thu 01:00:51 PM 40.0328 -88.5569 209° Southwest 470 541 40,000  Level Chicago Center
Thu 01:01:53 PM 39.9192 -88.6414 210° Southwest 469 540 40,000  Level Chicago Center
Thu 01:02:39 PM 39.8489 -88.6906 208° Southwest 471 542 40,000  Level Kansas City Center
Thu 01:03:41 PM 39.7128 -88.7914 210° Southwest 469 540 40,000  Level Kansas City Center
Thu 01:04:42 PM 39.5981 -88.8750 209° Southwest 470 541 40,000  Level Kansas City Center
Thu 01:05:43 PM 39.4831 -88.9575 209° Southwest 470 541 40,000  Level Kansas City Center
Thu 01:06:46 PM 39.3592 -89.0483 210° Southwest 472 543 40,000  Level Kansas City Center
Thu 01:07:47 PM 39.2458 -89.1306 209° Southwest 468 539 40,000  Level Kansas City Center
Thu 01:08:51 PM 39.1242 -89.2178 209° Southwest 465 535 40,000  Level Kansas City Center
Thu 01:09:51 PM 39.0036 -89.3053 209° Southwest 463 533 40,000  Level Kansas City Center
Thu 01:10:55 PM 38.8908 -89.3861 209° Southwest 464 534 40,000  Level Kansas City Center
Thu 01:11:55 PM 38.7778 -89.4644 208° Southwest 463 533 40,000  Level Kansas City Center
Thu 01:12:59 PM 38.6558 -89.5503 209° Southwest 463 533 40,000  Level Kansas City Center
Thu 01:13:59 PM 38.5406 -89.6286 208° Southwest 466 536 40,000  Level Kansas City Center
Thu 01:15:03 PM 38.4269 -89.7100 209° Southwest 472 543 40,000  Level Kansas City Center
Thu 01:16:03 PM 38.3158 -89.7878 209° Southwest 459 528 40,000  Level Kansas City Center
Thu 01:17:07 PM 38.2033 -89.8664 209° Southwest 458 527 40,000  Level Kansas City Center
Thu 01:18:09 PM 38.0686 -89.9600 209° Southwest 470 541 40,000  Level Kansas City Center
Thu 01:19:10 PM 37.9567 -90.0381 209° Southwest 462 532 40,000  Level Kansas City Center
Thu 01:20:14 PM 37.8403 -90.1197 209° Southwest 457 526 40,000  Level Kansas City Center
Thu 01:21:15 PM 37.7272 -90.2003 209° Southwest 463 533 40,000  Level Kansas City Center
Thu 01:22:18 PM 37.6144 -90.2778 209° Southwest 462 532 40,000  Level Kansas City Center
Thu 01:23:19 PM 37.5017 -90.3528 208° Southwest 460 529 40,000  Level Kansas City Center
Thu 01:24:20 PM 37.3892 -90.4283 208° Southwest 458 527 40,000  Level Kansas City Center
Thu 01:25:24 PM 37.2619 -90.5122 208° Southwest 459 528 40,000  Level Kansas City Center
Thu 01:26:25 PM 37.1483 -90.5894 208° Southwest 461 531 40,000  Level Kansas City Center
Thu 01:27:28 PM 37.0364 -90.6631 208° Southwest 459 528 40,000 194 Level Kansas City Center
Thu 01:28:29 PM 36.9258 -90.7361 208° Southwest 454 522 40,400 574 Climbing Kansas City Center
Thu 01:29:02 PM 36.8519 -90.7900 210° Southwest 462 532 40,900 387 Climbing Memphis Center
Thu 01:30:02 PM 36.7392 -90.8644 208° Southwest 462 532 41,000 50 Climbing Memphis Center
Thu 01:31:02 PM 36.6222 -90.9411 208° Southwest 462 532 41,000  Level Memphis Center
Thu 01:32:02 PM 36.5092 -91.0153 208° Southwest 462 532 41,000  Level Memphis Center
Thu 01:33:02 PM 36.3919 -91.0917 208° Southwest 462 532 41,000  Level Memphis Center
Thu 01:34:02 PM 36.2769 -91.1653 207° Southwest 462 532 41,000  Level Memphis Center
Thu 01:35:02 PM 36.1639 -91.2389 208° Southwest 462 532 41,000  Level Memphis Center
Thu 01:36:02 PM 36.0467 -91.3119 207° Southwest 462 532 41,000  Level Memphis Center
Thu 01:37:02 PM 35.9333 -91.3850 208° Southwest 468 539 41,000  Level Memphis Center
Thu 01:38:02 PM 35.8244 -91.4553 208° Southwest 462 532 41,000  Level Memphis Center
Thu 01:39:02 PM 35.7131 -91.5281 208° Southwest 457 526 41,000  Level Memphis Center
Thu 01:40:02 PM 35.5936 -91.5928 204° Southwest 457 526 41,000  Level Memphis Center
Thu 01:41:02 PM 35.4703 -91.6342 195° South 457 526 41,000  Level Memphis Center
Thu 01:42:02 PM 35.3489 -91.6731 195° South 457 526 41,000  Level Memphis Center
Thu 01:43:02 PM 35.2233 -91.7119 194° South 462 532 41,000  Level Memphis Center
Thu 01:44:02 PM 35.0978 -91.7478 193° South 462 532 41,000  Level Memphis Center
Thu 01:45:02 PM 34.9719 -91.7889 195° South 462 532 41,000  Level Memphis Center
Thu 01:46:02 PM 34.8403 -91.8272 193° South 462 532 41,000  Level Memphis Center
Thu 01:47:02 PM 34.7125 -91.8653 194° South 456 525 41,000  Level Memphis Center
Thu 01:48:02 PM 34.5867 -91.9061 195° South 456 525 41,000  Level Memphis Center
Thu 01:49:02 PM 34.4653 -91.9417 194° South 456 525 41,000  Level Memphis Center
Thu 01:50:02 PM 34.3375 -91.9844 195° South 456 525 41,000  Level Memphis Center
Thu 01:51:02 PM 34.2161 -92.0175 193° South 456 525 41,000  Level Memphis Center
Thu 01:52:02 PM 34.0903 -92.0578 195° South 456 525 41,000  Level Memphis Center
Thu 01:53:02 PM 33.9708 -92.0981 196° South 456 525 41,000 -385 Level Memphis Center
Thu 01:54:38 PM 33.7708 -92.1514 192° South 452 520 40,000 -385 Descending Fort Worth Center
Thu 01:55:38 PM 33.6472 -92.1889 194° South 458 527 40,000  Level Fort Worth Center
Thu 01:56:38 PM 33.5236 -92.2236 193° South 463 533 40,000  Level Fort Worth Center
Thu 01:57:38 PM 33.4000 -92.2633 195° South 463 533 40,000  Level Fort Worth Center
Thu 01:58:38 PM 33.2764 -92.3003 194° South 463 533 40,000  Level Fort Worth Center
Thu 01:59:38 PM 33.1483 -92.3350 193° South 469 540 40,000  Level Fort Worth Center
Thu 02:00:38 PM 33.0244 -92.3717 194° South 469 540 40,000  Level Fort Worth Center
Thu 02:01:38 PM 32.9028 -92.4083 194° South 463 533 40,000 -118 Level Fort Worth Center
Thu 02:03:10 PM 32.7158 -92.4642 194° South 461 531 39,700 -506 Descending Houston Center
Thu 02:04:12 PM 32.5986 -92.4961 193° South 467 537 38,700 -871 Descending Houston Center
Thu 02:05:14 PM 32.4503 -92.5389 194° South 459 528 37,900 -339 Descending Houston Center
Thu 02:06:16 PM 32.3253 -92.5758 194° South 463 533 38,000 48 Climbing Houston Center
Thu 02:07:18 PM 32.2017 -92.6106 193° South 459 528 38,000 -48 Level Houston Center
Thu 02:08:20 PM 32.0772 -92.6472 194° South 460 529 37,900 -48 Descending Houston Center
Thu 02:09:22 PM 31.9544 -92.6928 197° South 468 539 37,900 -339 Level Houston Center
Thu 02:10:24 PM 31.8603 -92.7981 224° Southwest 467 537 37,200 -960 Descending Houston Center
Thu 02:11:27 PM 31.8025 -92.9742 249° West 481 554 35,900 -624 Descending Houston Center
Thu 02:12:29 PM 31.7178 -93.0878 229° Southwest 465 535 35,900 48 Level Houston Center
Thu 02:13:31 PM 31.6139 -93.1856 219° Southwest 477 549 36,000 48 Climbing Houston Center
Thu 02:14:33 PM 31.5033 -93.2794 216° Southwest 474 545 36,000  Level Houston Center
Thu 02:15:35 PM 31.3967 -93.3694 216° Southwest 473 544 36,000  Level Houston Center
Thu 02:16:37 PM 31.2772 -93.4250 202° Southwest 471 542 36,000 -1,306 Level Houston Center
Thu 02:17:39 PM 31.1278 -93.4408 185° South 460 529 33,300 -2,613 Descending Houston Center
Thu 02:18:41 PM 30.9914 -93.4536 185° South 486 559 30,600 -2,468 Descending Houston Center
Thu 02:19:43 PM 30.8511 -93.4658 184° South 494 568 28,200 -2,016 Descending Houston Center
Thu 02:20:46 PM 30.7233 -93.4933 190° South 477 549 26,400 -1,872 Descending Houston Center
Thu 02:21:48 PM 30.6314 -93.5931 223° Southwest 470 541 24,300 -1,839 Descending Houston Center
Thu 02:22:50 PM 30.5508 -93.7372 237° Southwest 455 524 22,600 -2,081 Descending Houston Center
Thu 02:23:52 PM 30.4906 -93.8439 237° Southwest 409 471 20,000 -2,208 Descending Houston Center
Thu 02:24:36 PM 30.4425 -93.9297 237° Southwest 394 453 18,700 -1,585 Descending Houston Center
Thu 02:25:38 PM 30.3803 -94.0400 237° Southwest 389 448 17,200 -1,561 Descending Houston Center
Thu 02:26:39 PM 30.3247 -94.1369 236° Southwest 373 429 15,500 -1,672 Descending Houston Center
Thu 02:27:40 PM 30.2681 -94.2414 238° Southwest 365 420 13,800 -1,659 Descending Houston Center
Thu 02:28:42 PM 30.2106 -94.3411 236° Southwest 355 409 12,100 -1,073 Descending Houston Center
Thu 02:29:43 PM 30.1836 -94.4511 254° West 347 399 11,600 -750 Descending Houston Center
Thu 02:30:50 PM 30.1617 -94.5700 258° West 338 389 10,500 -934 Descending Houston Center
Thu 02:31:45 PM 30.1433 -94.6617 257° West 309 356 9,700 -1,086 Descending Houston Center
Thu 02:32:46 PM 30.1339 -94.7597 264° West 301 346 8,400 -1,268 Descending Houston Center
Thu 02:33:48 PM 30.1219 -94.8556 262° West 294 338 7,100 -1,116 Descending Houston Center
Thu 02:34:55 PM 30.1064 -94.9564 260° West 292 336 6,000 -516 Descending Houston Center
Thu 02:35:56 PM 30.1047 -95.0508 269° West 290 334 6,000  Level Houston Center
Thu 02:36:57 PM 30.1075 -95.1472 272° West 288 331 6,000  Level Houston Center
Thu 02:37:53 PM 30.1069 -95.2319 270° West 290 334 6,000  Level Houston Center
Thu 02:38:54 PM 30.1072 -95.3261 270° West 275 316 6,000  Level Houston Center
Thu 02:39:24 PM 30.1083 -95.3567 272° West 277 319 6,000 -689 Level Houston Center
Thu 02:39:55 PM 30.1058 -95.4033 266° West 245 282 5,300 -968 Descending Houston Center
Thu 02:40:26 PM 30.1086 -95.4333 276° West 251 289 5,000 -885 Descending Houston Center
Thu 02:40:56 PM 30.1069 -95.4853 268° West 238 274 4,400 -968 Descending Houston Center
Thu 02:41:28 PM 30.1061 -95.5094 268° West 242 278 4,000 -766 Descending Houston Center
Thu 02:42:30 PM 30.0764 -95.5828 245° Southwest 225 259 3,200 -484 Descending Houston Center
Thu 02:43:32 PM 30.0242 -95.5803 178° South 198 228 3,000 -194 Descending Houston Center

Login

Don't have an account? Register now (free) for customized features, flight alerts, and more!